Time;durP1;ratioP1;P1;durP2;ratioP2;P2;SDS_P1;SDS_P2;PMS_P1;PMS_P2;Temp;Humidity;BMP_temperature;BMP_pressure;BME280_temperature;BME280_humidity;BME280_pressure;Samples;Min_cycle;Max_cycle;Signal;HPM_P1;HPM_P2
2021/07/02 00:01:36;;;;;;;48.47;26.90;;;;;;;;;;5080329;28;20434;-72
2021/07/02 00:04:05;;;;;;;34.13;20.77;;;;;;;;;;5079569;28;20481;-72
2021/07/02 00:06:33;;;;;;;39.40;24.27;;;;;;;;;;5079640;28;20483;-72
2021/07/02 00:09:00;;;;;;;38.73;24.47;;;;;;;;;;5079729;28;20432;-73
2021/07/02 00:11:27;;;;;;;39.67;23.40;;;;;;;;;;5080424;28;20437;-72
2021/07/02 00:13:55;;;;;;;35.30;23.10;;;;;;;;;;5079987;28;20449;-72
2021/07/02 00:16:22;;;;;;;38.37;22.77;;;;;;;;;;5079703;28;20444;-74
2021/07/02 00:18:49;;;;;;;33.53;21.53;;;;;;;;;;5080138;28;20440;-73
2021/07/02 00:21:17;;;;;;;34.23;22.50;;;;;;;;;;5079457;28;20935;-73
2021/07/02 00:23:45;;;;;;;36.03;22.17;;;;;;;;;;5080021;28;20467;-73
2021/07/02 00:26:12;;;;;;;44.00;23.37;;;;;;;;;;5079761;28;20466;-72
2021/07/02 00:28:39;;;;;;;40.70;23.30;;;;;;;;;;5079745;28;20524;-73
2021/07/02 00:31:07;;;;;;;38.00;21.77;;;;;;;;;;5079431;28;20925;-73
2021/07/02 00:33:34;;;;;;;36.33;22.90;;;;;;;;;;5079352;28;20950;-73
2021/07/02 00:36:01;;;;;;;38.83;20.93;;;;;;;;;;5079652;28;20475;-73
2021/07/02 00:38:30;;;;;;;40.67;21.27;;;;;;;;;;5079341;28;20957;-74
2021/07/02 00:40:57;;;;;;;41.83;22.17;;;;;;;;;;5079906;28;20433;-74
2021/07/02 00:43:24;;;;;;;35.33;22.83;;;;;;;;;;5077136;28;20481;-74
2021/07/02 00:45:52;;;;;;;35.03;22.00;;;;;;;;;;5076237;28;20437;-73
2021/07/02 00:48:19;;;;;;;40.43;22.57;;;;;;;;;;5076529;28;20443;-74
2021/07/02 00:50:47;;;;;;;39.40;23.63;;;;;;;;;;5076484;28;20528;-74
2021/07/02 00:53:14;;;;;;;36.10;22.80;;;;;;;;;;5076320;28;20438;-74
2021/07/02 00:55:44;;;;;;;37.50;22.10;;;;;;;;;;5076277;28;20800;-74
2021/07/02 00:58:12;;;;;;;45.53;23.57;;;;;;;;;;5076236;28;20539;-74
2021/07/02 01:00:39;;;;;;;38.13;24.20;;;;;;;;;;5075800;28;20446;-74
2021/07/02 01:03:06;;;;;;;40.73;24.73;;;;;;;;;;5076045;28;20583;-74
2021/07/02 01:05:34;;;;;;;34.70;21.50;;;;;;;;;;5075762;28;20445;-74
2021/07/02 01:08:01;;;;;;;50.50;24.03;;;;;;;;;;5075689;28;20974;-74
2021/07/02 01:10:28;;;;;;;41.40;25.63;;;;;;;;;;5075931;28;20442;-73
2021/07/02 01:12:57;;;;;;;40.03;22.07;;;;;;;;;;5075562;28;20436;-73
2021/07/02 01:15:25;;;;;;;44.83;24.43;;;;;;;;;;5075748;28;20452;-73
2021/07/02 01:17:53;;;;;;;42.43;24.93;;;;;;;;;;5075531;28;20453;-73
2021/07/02 01:20:20;;;;;;;42.63;25.20;;;;;;;;;;5076110;28;20464;-73
2021/07/02 01:22:49;;;;;;;48.90;26.53;;;;;;;;;;5075636;28;20441;-74
2021/07/02 01:25:16;;;;;;;54.93;26.23;;;;;;;;;;5075758;28;20951;-73
2021/07/02 01:27:43;;;;;;;46.03;23.73;;;;;;;;;;5075804;28;20445;-74
2021/07/02 01:30:11;;;;;;;46.97;28.60;;;;;;;;;;5075606;28;20443;-74
2021/07/02 01:32:38;;;;;;;40.17;22.70;;;;;;;;;;5075749;28;20437;-74
2021/07/02 01:35:06;;;;;;;48.70;26.83;;;;;;;;;;5075154;28;20494;-74
2021/07/02 01:37:33;;;;;;;37.60;25.50;;;;;;;;;;5075699;28;20445;-74
2021/07/02 01:40:02;;;;;;;54.90;27.17;;;;;;;;;;5075092;28;20962;-74
2021/07/02 01:42:30;;;;;;;50.87;24.60;;;;;;;;;;5075031;28;20445;-74
2021/07/02 01:44:57;;;;;;;38.07;23.27;;;;;;;;;;5075429;28;20529;-74
2021/07/02 01:47:24;;;;;;;43.33;23.20;;;;;;;;;;5074701;28;20570;-74
2021/07/02 01:49:51;;;;;;;45.57;23.40;;;;;;;;;;5074887;28;20972;-73
2021/07/02 01:52:19;;;;;;;40.83;23.27;;;;;;;;;;5075198;28;20430;-74
2021/07/02 01:54:46;;;;;;;36.20;22.23;;;;;;;;;;5075148;28;20539;-74
2021/07/02 01:57:19;;;;;;;39.07;22.80;;;;;;;;;;5075290;28;20443;-74
2021/07/02 01:59:46;;;;;;;39.67;23.43;;;;;;;;;;5075260;28;20429;-74
2021/07/02 02:02:14;;;;;;;44.40;24.03;;;;;;;;;;5075280;28;20523;-74
2021/07/02 02:04:41;;;;;;;35.87;21.43;;;;;;;;;;5075319;28;20477;-73
2021/07/02 02:07:08;;;;;;;44.50;23.30;;;;;;;;;;5075449;28;20532;-73
2021/07/02 02:09:35;;;;;;;36.63;21.57;;;;;;;;;;5074498;28;20425;-73
2021/07/02 02:12:03;;;;;;;45.67;22.53;;;;;;;;;;5074804;28;20862;-73
2021/07/02 02:14:31;;;;;;;45.80;24.17;;;;;;;;;;5075089;28;20437;-73
2021/07/02 02:16:59;;;;;;;46.77;22.57;;;;;;;;;;5074231;28;20440;-73
2021/07/02 02:19:26;;;;;;;44.73;24.50;;;;;;;;;;5074829;28;20441;-73
2021/07/02 02:21:53;;;;;;;42.70;22.60;;;;;;;;;;5074549;28;20484;-73
2021/07/02 02:24:21;;;;;;;39.50;23.03;;;;;;;;;;5074128;28;20468;-73
2021/07/02 02:26:48;;;;;;;43.80;22.70;;;;;;;;;;5074490;28;20468;-73
2021/07/02 02:29:15;;;;;;;40.20;21.60;;;;;;;;;;5074122;28;20444;-73
2021/07/02 02:31:44;;;;;;;44.40;22.37;;;;;;;;;;5074402;28;20448;-73
2021/07/02 02:34:11;;;;;;;45.53;24.47;;;;;;;;;;5074033;28;20452;-73
2021/07/02 02:36:38;;;;;;;39.47;23.97;;;;;;;;;;5074723;28;20473;-73
2021/07/02 02:39:06;;;;;;;36.60;21.70;;;;;;;;;;5073928;28;20455;-73
2021/07/02 02:41:33;;;;;;;43.83;24.57;;;;;;;;;;5073896;28;20441;-73
2021/07/02 02:44:00;;;;;;;44.30;23.20;;;;;;;;;;5074230;28;20564;-73
2021/07/02 02:46:27;;;;;;;42.37;24.60;;;;;;;;;;5074502;28;20476;-73
2021/07/02 02:48:56;;;;;;;49.20;25.67;;;;;;;;;;5074283;28;20466;-73
2021/07/02 02:51:23;;;;;;;52.23;25.83;;;;;;;;;;5074123;28;20545;-73
2021/07/02 02:53:50;;;;;;;45.17;24.80;;;;;;;;;;5073717;28;20442;-73
2021/07/02 02:56:17;;;;;;;41.73;23.23;;;;;;;;;;5073677;28;20444;-73
2021/07/02 02:58:45;;;;;;;45.30;23.70;;;;;;;;;;5073975;28;20941;-73
2021/07/02 03:01:12;;;;;;;42.37;22.27;;;;;;;;;;5073600;28;20487;-73
2021/07/02 03:03:39;;;;;;;44.93;24.53;;;;;;;;;;5073583;28;20989;-73
2021/07/02 03:06:08;;;;;;;41.40;23.67;;;;;;;;;;5073532;28;20442;-73
2021/07/02 03:08:35;;;;;;;46.57;23.30;;;;;;;;;;5074312;28;20550;-73
2021/07/02 03:11:02;;;;;;;34.73;23.67;;;;;;;;;;5074478;28;20537;-73
2021/07/02 03:13:29;;;;;;;45.70;22.57;;;;;;;;;;5073455;28;20440;-73
2021/07/02 03:15:57;;;;;;;40.37;25.23;;;;;;;;;;5073814;28;20552;-72
2021/07/02 03:18:24;;;;;;;50.83;25.10;;;;;;;;;;5073391;28;20441;-73
2021/07/02 03:20:51;;;;;;;44.57;25.70;;;;;;;;;;5074777;28;20469;-72
2021/07/02 03:23:20;;;;;;;44.70;23.97;;;;;;;;;;5073792;28;20437;-72
2021/07/02 03:25:47;;;;;;;44.40;24.47;;;;;;;;;;5073540;28;20571;-72
2021/07/02 03:28:14;;;;;;;39.60;24.93;;;;;;;;;;5073424;28;20435;-72
2021/07/02 03:30:41;;;;;;;39.00;24.07;;;;;;;;;;5073745;28;20446;-73
2021/07/02 03:33:08;;;;;;;49.70;25.90;;;;;;;;;;5073575;28;20445;-72
2021/07/02 03:35:36;;;;;;;47.77;26.00;;;;;;;;;;5073555;28;20441;-73
2021/07/02 03:38:03;;;;;;;37.90;23.40;;;;;;;;;;5073321;28;20867;-73
2021/07/02 03:40:32;;;;;;;42.17;24.00;;;;;;;;;;5073558;28;20527;-73
2021/07/02 03:42:59;;;;;;;37.03;24.37;;;;;;;;;;5074276;28;20533;-73
2021/07/02 03:45:26;;;;;;;43.07;25.70;;;;;;;;;;5073280;28;20474;-73
2021/07/02 03:47:53;;;;;;;48.27;24.93;;;;;;;;;;5073530;28;20815;-73
2021/07/02 03:50:21;;;;;;;42.27;24.60;;;;;;;;;;5073423;28;20437;-73
2021/07/02 03:52:48;;;;;;;39.17;24.07;;;;;;;;;;5073123;28;20441;-72
2021/07/02 03:55:16;;;;;;;37.97;24.70;;;;;;;;;;5073052;28;20488;-73
2021/07/02 03:57:44;;;;;;;39.53;25.10;;;;;;;;;;5073487;28;20790;-73
2021/07/02 04:00:12;;;;;;;39.77;23.57;;;;;;;;;;5073351;28;20480;-74
2021/07/02 04:02:39;;;;;;;48.67;23.57;;;;;;;;;;5072971;28;20475;-73
2021/07/02 04:05:06;;;;;;;45.87;24.80;;;;;;;;;;5073266;28;20974;-73
2021/07/02 04:07:34;;;;;;;45.70;25.60;;;;;;;;;;5073262;28;20441;-73
2021/07/02 04:10:01;;;;;;;44.40;23.27;;;;;;;;;;5072991;28;20489;-73
2021/07/02 04:12:29;;;;;;;40.03;24.57;;;;;;;;;;5072987;28;20447;-74
2021/07/02 04:14:57;;;;;;;45.03;23.43;;;;;;;;;;5073540;28;20468;-72
2021/07/02 04:17:24;;;;;;;36.13;23.40;;;;;;;;;;5072980;28;20478;-74
2021/07/02 04:19:51;;;;;;;38.70;23.87;;;;;;;;;;5075629;28;20528;-74
2021/07/02 04:22:19;;;;;;;48.00;26.00;;;;;;;;;;5077671;28;20439;-74
2021/07/02 04:24:46;;;;;;;40.43;22.73;;;;;;;;;;5077031;28;20560;-74
2021/07/02 04:27:15;;;;;;;37.73;23.20;;;;;;;;;;5076809;28;20439;-74
2021/07/02 04:29:42;;;;;;;42.03;25.00;;;;;;;;;;5072333;28;20496;-73
2021/07/02 04:32:10;;;;;;;33.03;24.10;;;;;;;;;;5067303;28;20887;-73
2021/07/02 04:34:38;;;;;;;39.07;23.27;;;;;;;;;;5056474;28;20806;-73
2021/07/02 04:37:05;;;;;;;43.77;25.63;;;;;;;;;;5056628;28;20521;-73
2021/07/02 04:39:32;;;;;;;38.10;23.67;;;;;;;;;;5056401;28;20530;-73
2021/07/02 04:41:59;;;;;;;34.60;23.57;;;;;;;;;;5056206;28;20489;-73
2021/07/02 04:44:27;;;;;;;37.23;24.03;;;;;;;;;;5056001;28;20481;-72
2021/07/02 04:46:54;;;;;;;42.40;24.60;;;;;;;;;;5055926;28;20478;-73
2021/07/02 04:49:23;;;;;;;40.33;23.30;;;;;;;;;;5056360;28;20461;-73
2021/07/02 04:51:51;;;;;;;34.30;23.30;;;;;;;;;;5056026;28;20443;-74
2021/07/02 04:54:18;;;;;;;36.90;22.17;;;;;;;;;;5055919;28;20449;-73
2021/07/02 04:56:47;;;;;;;42.90;25.00;;;;;;;;;;5056248;28;20501;-73
2021/07/02 04:59:15;;;;;;;36.20;23.93;;;;;;;;;;5057028;28;20446;-73
2021/07/02 05:01:42;;;;;;;45.00;24.37;;;;;;;;;;5076453;28;20441;-73
2021/07/02 05:04:10;;;;;;;37.87;23.90;;;;;;;;;;5075609;28;20994;-73
2021/07/02 05:06:39;;;;;;;43.07;23.53;;;;;;;;;;5075670;28;20446;-73
2021/07/02 05:09:07;;;;;;;34.50;21.30;;;;;;;;;;5075617;28;20481;-72
2021/07/02 05:11:34;;;;;;;42.03;22.57;;;;;;;;;;5075930;28;20521;-72
2021/07/02 05:14:03;;;;;;;34.00;21.33;;;;;;;;;;5076124;28;20435;-72
2021/07/02 05:16:31;;;;;;;36.90;21.37;;;;;;;;;;5076083;28;20851;-75
2021/07/02 05:18:58;;;;;;;39.77;22.77;;;;;;;;;;5076170;28;20469;-73
2021/07/02 05:21:25;;;;;;;40.70;23.50;;;;;;;;;;5075450;28;20445;-73
2021/07/02 05:23:54;;;;;;;40.17;23.47;;;;;;;;;;5068963;28;20458;-73
2021/07/02 05:26:21;;;;;;;41.07;22.37;;;;;;;;;;5055555;28;20488;-73
2021/07/02 05:28:49;;;;;;;40.83;26.03;;;;;;;;;;5062427;28;21003;-73
2021/07/02 05:31:16;;;;;;;33.33;21.60;;;;;;;;;;5074017;28;20442;-73
2021/07/02 05:33:43;;;;;;;37.20;21.73;;;;;;;;;;5074104;28;20449;-73
2021/07/02 05:36:11;;;;;;;35.27;21.83;;;;;;;;;;5075060;28;20445;-68
2021/07/02 05:38:38;;;;;;;33.90;21.67;;;;;;;;;;5074537;28;20982;-68
2021/07/02 05:41:06;;;;;;;39.77;22.60;;;;;;;;;;5074821;28;20801;-69
2021/07/02 05:43:34;;;;;;;33.90;21.63;;;;;;;;;;5075048;28;20438;-69
2021/07/02 05:46:01;;;;;;;38.90;21.60;;;;;;;;;;5074666;28;20498;-68
2021/07/02 05:48:29;;;;;;;32.03;21.27;;;;;;;;;;5075533;28;20454;-68
2021/07/02 05:50:56;;;;;;;35.93;20.70;;;;;;;;;;5074920;28;20975;-68
2021/07/02 05:53:23;;;;;;;31.13;20.50;;;;;;;;;;5075142;28;20525;-68
2021/07/02 05:55:51;;;;;;;30.33;18.57;;;;;;;;;;5075212;28;20445;-68
2021/07/02 05:58:19;;;;;;;31.60;20.27;;;;;;;;;;5074748;28;20487;-68
2021/07/02 06:00:46;;;;;;;37.37;21.63;;;;;;;;;;5074966;28;20442;-68
2021/07/02 06:03:14;;;;;;;41.00;19.33;;;;;;;;;;5074650;28;20443;-68
2021/07/02 06:05:41;;;;;;;33.67;21.33;;;;;;;;;;5074807;28;20493;-69
2021/07/02 06:08:08;;;;;;;31.00;19.73;;;;;;;;;;5075091;28;20530;-68
2021/07/02 06:10:36;;;;;;;40.70;19.70;;;;;;;;;;5074417;28;20441;-69
2021/07/02 06:13:03;;;;;;;32.07;20.60;;;;;;;;;;5074729;28;20451;-69
2021/07/02 06:15:32;;;;;;;32.70;19.70;;;;;;;;;;5074698;28;21001;-69
2021/07/02 06:18:06;;;;;;;47.23;22.80;;;;;;;;;;5074663;28;20469;-68
2021/07/02 06:20:33;;;;;;;42.83;20.53;;;;;;;;;;5074658;28;20789;-69
2021/07/02 06:23:00;;;;;;;35.23;21.57;;;;;;;;;;5074157;28;20433;-69
2021/07/02 06:25:28;;;;;;;30.73;20.90;;;;;;;;;;5074638;28;20991;-70
2021/07/02 06:27:55;;;;;;;31.83;19.93;;;;;;;;;;5074127;28;20534;-69
2021/07/02 06:30:22;;;;;;;27.97;19.27;;;;;;;;;;5075004;28;20468;-69
2021/07/02 06:32:51;;;;;;;30.50;19.40;;;;;;;;;;5074219;28;20438;-69
2021/07/02 06:35:18;;;;;;;28.57;19.97;;;;;;;;;;5074023;28;20465;-68
2021/07/02 06:37:49;;;;;;;24.53;19.77;;;;;;;;;;5074685;28;20867;-68
2021/07/02 06:40:17;;;;;;;26.00;19.97;;;;;;;;;;5074681;28;20484;-69
2021/07/02 06:42:44;;;;;;;48.37;19.00;;;;;;;;;;5073350;28;20525;-69
2021/07/02 06:45:12;;;;;;;33.53;17.30;;;;;;;;;;5073762;28;20506;-68
2021/07/02 06:47:51;;;;;;;18.07;13.53;;;;;;;;;;5074058;28;20509;-68
2021/07/02 06:50:19;;;;;;;25.60;14.30;;;;;;;;;;5074084;28;20855;-69
2021/07/02 06:52:46;;;;;;;21.70;15.33;;;;;;;;;;5074007;28;20438;-69
2021/07/02 06:55:13;;;;;;;20.73;15.40;;;;;;;;;;5073990;28;20876;-68
2021/07/02 06:57:40;;;;;;;22.30;15.63;;;;;;;;;;5073716;28;20469;-68
2021/07/02 07:00:08;;;;;;;26.20;15.97;;;;;;;;;;5073662;28;20450;-69
2021/07/02 07:02:35;;;;;;;24.03;16.23;;;;;;;;;;5073915;28;20490;-69
2021/07/02 07:05:04;;;;;;;19.33;14.17;;;;;;;;;;5073805;28;20476;-69
2021/07/02 07:07:31;;;;;;;23.33;16.03;;;;;;;;;;5073865;28;20531;-69
2021/07/02 07:09:58;;;;;;;19.20;14.23;;;;;;;;;;5073474;28;20441;-68
2021/07/02 07:12:25;;;;;;;21.60;15.97;;;;;;;;;;5073538;28;20949;-68
2021/07/02 07:14:53;;;;;;;19.03;13.90;;;;;;;;;;5073761;28;20437;-69
2021/07/02 07:17:20;;;;;;;23.87;14.60;;;;;;;;;;5073824;28;20540;-68
2021/07/02 07:19:47;;;;;;;22.10;13.23;;;;;;;;;;5073732;28;20549;-68
2021/07/02 07:22:16;;;;;;;17.40;12.87;;;;;;;;;;5073345;28;20448;-68
2021/07/02 07:24:43;;;;;;;22.40;14.00;;;;;;;;;;5073344;28;20527;-68
2021/07/02 07:27:10;;;;;;;20.50;13.47;;;;;;;;;;5073867;28;20491;-68
2021/07/02 07:29:38;;;;;;;25.60;14.90;;;;;;;;;;5073338;28;20482;-68
2021/07/02 07:32:05;;;;;;;22.80;13.87;;;;;;;;;;5073262;28;20443;-68
2021/07/02 07:34:37;;;;;;;15.50;12.90;;;;;;;;;;5073242;28;20944;-68
2021/07/02 07:37:07;;;;;;;27.00;16.07;;;;;;;;;;5073885;28;20433;-68
2021/07/02 07:39:36;;;;;;;26.60;14.37;;;;;;;;;;5073218;28;20527;-68
2021/07/02 07:42:04;;;;;;;25.63;14.83;;;;;;;;;;5073519;28;20528;-69
2021/07/02 07:44:32;;;;;;;18.83;14.10;;;;;;;;;;5073107;28;20932;-68
2021/07/02 07:46:59;;;;;;;17.53;13.40;;;;;;;;;;5072971;28;20541;-69
2021/07/02 07:49:26;;;;;;;21.37;15.03;;;;;;;;;;5073695;28;20527;-68
2021/07/02 07:51:58;;;;;;;19.03;13.20;;;;;;;;;;5073194;28;20433;-68
2021/07/02 07:54:25;;;;;;;18.90;12.50;;;;;;;;;;5077029;28;20789;-68
2021/07/02 07:56:54;;;;;;;21.33;12.90;;;;;;;;;;5077432;28;20835;-68
2021/07/02 07:59:21;;;;;;;14.67;11.80;;;;;;;;;;5076986;28;20938;-68
2021/07/02 08:01:49;;;;;;;19.00;13.50;;;;;;;;;;5077297;28;20478;-68
2021/07/02 08:04:16;;;;;;;15.43;12.30;;;;;;;;;;5076961;28;20475;-68
2021/07/02 08:06:44;;;;;;;17.40;13.17;;;;;;;;;;5077212;28;20480;-68
2021/07/02 08:09:11;;;;;;;16.30;13.50;;;;;;;;;;5077087;28;20441;-68
2021/07/02 08:11:39;;;;;;;19.63;14.13;;;;;;;;;;5077902;28;20444;-68
2021/07/02 08:14:08;;;;;;;26.80;14.80;;;;;;;;;;5076996;28;20815;-68
2021/07/02 08:16:35;;;;;;;14.53;11.67;;;;;;;;;;5076622;28;20536;-68
2021/07/02 08:19:03;;;;;;;18.60;14.33;;;;;;;;;;5076520;28;20441;-68
2021/07/02 08:21:30;;;;;;;19.97;13.50;;;;;;;;;;5076467;28;20447;-68
2021/07/02 08:23:57;;;;;;;19.90;13.77;;;;;;;;;;5076408;28;20474;-68
2021/07/02 08:26:26;;;;;;;19.53;12.47;;;;;;;;;;5076627;28;20532;-68
2021/07/02 08:31:40;;;;;;;17.60;13.13;;;;;;;;;;5076538;28;20900;-68
2021/07/02 08:34:07;;;;;;;16.60;12.03;;;;;;;;;;5076661;28;20474;-68
2021/07/02 08:36:35;;;;;;;16.83;11.47;;;;;;;;;;5076311;28;20482;-68
2021/07/02 08:39:02;;;;;;;14.30;11.23;;;;;;;;;;5076750;28;20441;-68
2021/07/02 08:41:29;;;;;;;15.53;12.40;;;;;;;;;;5076905;28;20437;-68
2021/07/02 08:43:57;;;;;;;20.10;11.97;;;;;;;;;;5076738;28;20520;-68
2021/07/02 08:46:24;;;;;;;16.90;10.90;;;;;;;;;;5076159;28;21017;-68
2021/07/02 08:48:52;;;;;;;17.10;11.93;;;;;;;;;;5076450;28;20446;-68
2021/07/02 08:51:20;;;;;;;15.83;12.03;;;;;;;;;;5076590;28;20885;-68
2021/07/02 08:53:47;;;;;;;19.70;12.33;;;;;;;;;;5075949;28;20444;-68
2021/07/02 08:56:19;;;;;;;13.13;11.17;;;;;;;;;;5075978;28;20539;-68
2021/07/02 08:58:46;;;;;;;22.43;13.23;;;;;;;;;;5076022;28;20457;-68
2021/07/02 09:01:35;;;;;;;15.07;11.93;;;;;;;;;;5076227;28;20801;-68
2021/07/02 09:04:16;;;;;;;16.67;13.40;;;;;;;;;;5075682;28;20430;-68
2021/07/02 09:06:44;;;;;;;14.07;10.63;;;;;;;;;;5076525;28;20477;-68
2021/07/02 09:09:11;;;;;;;19.17;11.60;;;;;;;;;;5076008;28;20445;-68
2021/07/02 09:11:38;;;;;;;17.73;12.87;;;;;;;;;;5076110;28;20516;-68
2021/07/02 09:14:08;;;;;;;16.63;12.27;;;;;;;;;;5075638;28;20439;-68
2021/07/02 09:16:37;;;;;;;20.67;11.63;;;;;;;;;;5075886;28;20458;-68
2021/07/02 09:19:27;;;;;;;17.87;10.87;;;;;;;;;;5076044;28;20504;-68
2021/07/02 09:22:13;;;;;;;17.70;12.03;;;;;;;;;;5070615;28;20449;-68
2021/07/02 09:24:43;;;;;;;14.23;9.97;;;;;;;;;;5075861;28;20427;-68
2021/07/02 09:27:23;;;;;;;18.77;11.50;;;;;;;;;;5075608;28;20488;-68
2021/07/02 09:30:07;;;;;;;20.47;11.70;;;;;;;;;;5075752;28;20799;-68
2021/07/02 09:32:34;;;;;;;16.20;12.00;;;;;;;;;;5075904;28;20441;-68
2021/07/02 09:35:02;;;;;;;13.80;11.50;;;;;;;;;;5075976;28;20534;-68
2021/07/02 09:37:34;;;;;;;15.70;10.80;;;;;;;;;;5075191;28;21045;-68
2021/07/02 09:40:10;;;;;;;15.50;11.20;;;;;;;;;;5075490;28;20431;-68
2021/07/02 09:42:37;;;;;;;17.93;10.33;;;;;;;;;;5075952;28;20427;-68
2021/07/02 09:45:09;;;;;;;19.03;11.73;;;;;;;;;;5075248;28;20441;-68
2021/07/02 09:47:37;;;;;;;16.40;10.80;;;;;;;;;;5075276;28;20504;-68
2021/07/02 09:50:14;;;;;;;16.47;10.80;;;;;;;;;;5075689;28;20439;-68
2021/07/02 09:52:49;;;;;;;10.77;9.60;;;;;;;;;;5075218;28;20516;-68
2021/07/02 09:55:17;;;;;;;12.20;9.80;;;;;;;;;;5075798;28;20464;-68
2021/07/02 09:57:45;;;;;;;15.20;9.93;;;;;;;;;;5074793;28;20532;-68
2021/07/02 10:00:12;;;;;;;17.20;10.80;;;;;;;;;;5075197;28;20470;-67
2021/07/02 10:02:40;;;;;;;16.30;11.20;;;;;;;;;;5074983;28;20436;-68
2021/07/02 10:05:07;;;;;;;13.73;10.13;;;;;;;;;;5075160;28;20449;-68
2021/07/02 10:07:35;;;;;;;16.80;10.47;;;;;;;;;;5074784;28;20911;-68
2021/07/02 10:10:03;;;;;;;15.50;9.57;;;;;;;;;;5074983;28;20449;-67
2021/07/02 10:12:31;;;;;;;10.80;8.07;;;;;;;;;;5074756;28;20499;-68
2021/07/02 10:14:59;;;;;;;10.17;8.77;;;;;;;;;;5074719;28;20856;-68
2021/07/02 10:17:28;;;;;;;13.03;8.40;;;;;;;;;;5075011;28;20803;-68
2021/07/02 10:19:57;;;;;;;13.10;8.83;;;;;;;;;;5074323;28;20927;-68
2021/07/02 10:22:25;;;;;;;13.70;8.03;;;;;;;;;;5074762;28;20525;-68
2021/07/02 10:24:53;;;;;;;9.10;7.17;;;;;;;;;;5074546;28;20496;-68
2021/07/02 10:27:22;;;;;;;8.57;6.07;;;;;;;;;;5074554;28;20490;-67
2021/07/02 10:29:49;;;;;;;11.00;6.27;;;;;;;;;;5074542;28;20445;-68
2021/07/02 10:32:19;;;;;;;9.17;6.60;;;;;;;;;;5074382;28;20934;-68
2021/07/02 10:34:46;;;;;;;11.97;8.20;;;;;;;;;;5074332;28;20449;-67
2021/07/02 10:37:14;;;;;;;10.90;8.03;;;;;;;;;;5074318;28;20476;-67
2021/07/02 10:39:44;;;;;;;11.60;7.63;;;;;;;;;;5074183;28;20446;-67
2021/07/02 10:42:13;;;;;;;9.90;8.27;;;;;;;;;;5073830;28;20936;-67
2021/07/02 10:44:59;;;;;;;13.33;7.00;;;;;;;;;;5073804;28;20952;-68
2021/07/02 10:47:28;;;;;;;16.43;9.43;;;;;;;;;;5073555;28;20982;-67
2021/07/02 10:49:55;;;;;;;14.67;8.50;;;;;;;;;;5074121;28;20438;-68
2021/07/02 10:52:23;;;;;;;12.37;8.93;;;;;;;;;;5073700;28;20446;-67
2021/07/02 10:54:51;;;;;;;10.70;8.00;;;;;;;;;;5073709;28;20442;-67
2021/07/02 10:57:19;;;;;;;8.20;6.17;;;;;;;;;;5073977;28;20479;-67
2021/07/02 11:00:16;;;;;;;11.57;7.70;;;;;;;;;;5073659;28;20448;-68
2021/07/02 11:02:46;;;;;;;11.93;7.53;;;;;;;;;;5074230;28;20845;-68
2021/07/02 11:05:34;;;;;;;11.90;7.00;;;;;;;;;;5073965;28;20440;-67
2021/07/02 11:08:01;;;;;;;8.53;7.73;;;;;;;;;;5074438;28;20495;-68
2021/07/02 11:10:53;;;;;;;10.63;7.03;;;;;;;;;;5073524;28;20475;-67
2021/07/02 11:13:20;;;;;;;13.10;7.50;;;;;;;;;;5073839;28;20441;-67
2021/07/02 11:16:03;;;;;;;8.50;7.03;;;;;;;;;;5073513;28;20486;-67
2021/07/02 11:18:39;;;;;;;11.17;7.10;;;;;;;;;;5074331;28;20856;-67
2021/07/02 11:21:14;;;;;;;10.03;7.57;;;;;;;;;;5074477;28;20431;-67
2021/07/02 11:23:42;;;;;;;9.13;6.93;;;;;;;;;;5074443;28;20418;-67
2021/07/02 11:26:12;;;;;;;10.10;7.40;;;;;;;;;;5073909;28;20838;-67
2021/07/02 11:28:55;;;;;;;8.67;6.20;;;;;;;;;;5073674;28;20450;-68
2021/07/02 11:31:35;;;;;;;8.33;6.00;;;;;;;;;;5073372;28;20921;-67
2021/07/02 11:34:11;;;;;;;8.43;5.80;;;;;;;;;;5074219;28;20426;-67
2021/07/02 11:36:39;;;;;;;6.93;5.20;;;;;;;;;;5074052;28;20438;-67
2021/07/02 11:39:06;;;;;;;10.33;6.10;;;;;;;;;;5073504;28;20444;-68
2021/07/02 11:41:34;;;;;;;12.07;5.60;;;;;;;;;;5073014;28;20440;-68
2021/07/02 11:44:03;;;;;;;9.93;5.50;;;;;;;;;;5073397;28;20428;-67
2021/07/02 11:46:30;;;;;;;6.23;5.40;;;;;;;;;;5073464;28;20502;-67
2021/07/02 11:48:58;;;;;;;7.73;5.97;;;;;;;;;;5074002;28;20451;-67
2021/07/02 11:51:28;;;;;;;7.80;6.97;;;;;;;;;;5073825;28;20436;-68
2021/07/02 11:53:56;;;;;;;8.83;5.53;;;;;;;;;;5073595;28;20427;-68
2021/07/02 11:56:24;;;;;;;7.10;5.03;;;;;;;;;;5073313;28;20451;-68
2021/07/02 11:58:54;;;;;;;5.93;5.07;;;;;;;;;;5072916;28;20448;-68
2021/07/02 12:01:22;;;;;;;9.97;5.20;;;;;;;;;;5073324;28;20429;-68
2021/07/02 12:03:51;;;;;;;7.00;5.37;;;;;;;;;;5072956;28;20472;-68
2021/07/02 12:06:27;;;;;;;7.87;5.70;;;;;;;;;;5072753;28;20468;-67
2021/07/02 12:08:57;;;;;;;8.50;6.37;;;;;;;;;;5073100;28;20509;-67
2021/07/02 12:11:32;;;;;;;9.40;6.20;;;;;;;;;;5073700;28;20425;-68
2021/07/02 12:14:00;;;;;;;7.47;5.70;;;;;;;;;;5072855;28;20535;-67
2021/07/02 12:16:31;;;;;;;8.00;5.70;;;;;;;;;;5073139;28;20451;-67
2021/07/02 12:18:58;;;;;;;13.10;6.13;;;;;;;;;;5072814;28;20468;-67
2021/07/02 12:21:31;;;;;;;10.37;6.47;;;;;;;;;;5072696;28;20452;-67
2021/07/02 12:24:01;;;;;;;6.50;5.30;;;;;;;;;;5073305;28;20910;-67
2021/07/02 12:26:30;;;;;;;6.70;5.53;;;;;;;;;;5073470;28;20866;-67
2021/07/02 12:29:02;;;;;;;11.60;4.97;;;;;;;;;;5072759;28;20523;-67
2021/07/02 12:31:31;;;;;;;7.07;4.50;;;;;;;;;;5072970;28;20948;-67
2021/07/02 12:33:58;;;;;;;8.13;5.93;;;;;;;;;;5073235;28;20440;-67
2021/07/02 12:36:27;;;;;;;6.40;5.10;;;;;;;;;;5073097;28;20475;-67
2021/07/02 12:39:07;;;;;;;7.40;5.10;;;;;;;;;;5072934;28;20524;-67
2021/07/02 12:41:37;;;;;;;5.47;3.77;;;;;;;;;;5075922;28;20497;-67
2021/07/02 12:44:05;;;;;;;5.50;4.87;;;;;;;;;;5076157;28;20522;-67
2021/07/02 12:46:32;;;;;;;5.07;4.50;;;;;;;;;;5076157;28;20468;-67
2021/07/02 12:49:34;;;;;;;13.57;5.47;;;;;;;;;;5076514;28;20443;-68
2021/07/02 12:55:00;;;;;;;8.80;4.80;;;;;;;;;;5076098;28;20396;-70
2021/07/02 12:57:29;;;;;;;6.00;5.40;;;;;;;;;;5076040;28;20468;-69
2021/07/02 12:59:57;;;;;;;6.23;5.70;;;;;;;;;;5076251;28;20437;-70
2021/07/02 13:02:25;;;;;;;8.73;6.13;;;;;;;;;;5076339;28;20501;-69
2021/07/02 13:04:52;;;;;;;6.80;5.83;;;;;;;;;;5075554;28;20442;-81
2021/07/02 13:07:19;;;;;;;6.60;5.90;;;;;;;;;;5076019;28;20475;-69
2021/07/02 13:09:46;;;;;;;7.90;6.10;;;;;;;;;;5075898;28;20897;-69
2021/07/02 13:12:16;;;;;;;6.13;5.30;;;;;;;;;;5073358;28;20448;-69
2021/07/02 13:14:45;;;;;;;6.57;5.90;;;;;;;;;;5066292;28;20503;-69
2021/07/02 13:17:12;;;;;;;6.70;5.43;;;;;;;;;;5054418;28;21008;-69
2021/07/02 13:19:39;;;;;;;8.40;6.50;;;;;;;;;;5055060;28;20203;-70
2021/07/02 13:22:17;;;;;;;6.33;5.83;;;;;;;;;;5055517;28;20803;-68
2021/07/02 13:24:44;;;;;;;11.10;7.30;;;;;;;;;;5055380;28;20524;-69
2021/07/02 13:27:12;;;;;;;8.10;6.33;;;;;;;;;;5055317;28;20485;-69
2021/07/02 13:29:41;;;;;;;6.40;5.23;;;;;;;;;;5055077;28;20440;-69
2021/07/02 13:32:08;;;;;;;9.00;6.00;;;;;;;;;;5055310;28;20532;-69
2021/07/02 13:34:40;;;;;;;10.63;6.20;;;;;;;;;;5055042;28;20981;-68
2021/07/02 13:37:12;;;;;;;5.30;4.80;;;;;;;;;;5055409;28;20502;-68
2021/07/02 13:39:42;;;;;;;6.40;5.17;;;;;;;;;;5055421;28;20460;-69
2021/07/02 13:42:10;;;;;;;5.17;4.67;;;;;;;;;;5055840;28;20437;-69
2021/07/02 13:44:38;;;;;;;5.17;4.67;;;;;;;;;;5074939;28;20520;-69
2021/07/02 13:47:13;;;;;;;6.37;5.20;;;;;;;;;;5075125;28;20468;-69
2021/07/02 13:49:41;;;;;;;7.30;5.13;;;;;;;;;;5075189;28;20429;-69
2021/07/02 13:52:09;;;;;;;4.70;4.30;;;;;;;;;;5075081;28;20999;-68
2021/07/02 13:54:36;;;;;;;6.57;5.33;;;;;;;;;;5074786;28;20924;-69
2021/07/02 13:57:04;;;;;;;8.07;5.17;;;;;;;;;;5074888;28;20870;-69
2021/07/02 13:59:32;;;;;;;5.23;4.37;;;;;;;;;;5074739;28;21004;-69
2021/07/02 14:01:59;;;;;;;4.57;4.17;;;;;;;;;;5074590;28;20490;-69
2021/07/02 14:04:29;;;;;;;9.10;5.40;;;;;;;;;;5075087;28;20448;-69
2021/07/02 14:06:57;;;;;;;5.97;5.40;;;;;;;;;;5074775;28;20531;-69
2021/07/02 14:09:24;;;;;;;7.90;4.57;;;;;;;;;;5074470;28;20437;-68
2021/07/02 14:11:51;;;;;;;9.30;4.93;;;;;;;;;;5075297;28;20440;-68
2021/07/02 14:14:19;;;;;;;6.27;4.87;;;;;;;;;;5074628;28;20531;-69
2021/07/02 14:16:46;;;;;;;5.00;4.50;;;;;;;;;;5074572;28;20488;-69
2021/07/02 14:19:13;;;;;;;5.37;4.77;;;;;;;;;;5074497;28;20448;-69
2021/07/02 14:21:43;;;;;;;6.83;4.97;;;;;;;;;;5074775;28;20462;-69
2021/07/02 14:24:11;;;;;;;5.40;4.83;;;;;;;;;;5074472;28;20514;-68
2021/07/02 14:26:38;;;;;;;5.10;4.60;;;;;;;;;;5074598;28;20470;-68
2021/07/02 14:29:06;;;;;;;5.90;4.83;;;;;;;;;;5074236;28;20513;-68
2021/07/02 14:31:33;;;;;;;10.60;5.63;;;;;;;;;;5074411;28;20467;-69
2021/07/02 14:34:00;;;;;;;6.57;5.90;;;;;;;;;;5073947;28;20446;-68
2021/07/02 14:36:27;;;;;;;8.60;4.90;;;;;;;;;;5074028;28;20446;-68
2021/07/02 14:38:56;;;;;;;6.87;5.80;;;;;;;;;;5074288;28;20433;-68